Accueil
METAR-TAF:

METAR-TAF

Aéroports :

Neubourg, Allemagne

Base aérienne de Neubourg

latitude: 48-43N, longitude: 011-13E, altitude: 380 m

Observation

Le bulletin a été fait il y a 57 minutes, à 09:20 UTC
Vent 9 kt de est/nord-est
Température -3°C
Humidité 54%
Pression 1019 hPa
Visibilité 10 km ou plus
Quelques nuages à une hauteur de 10000 ft

METAR: ETSN 240920Z 06009KT 9999 FEW100 M03/M11 Q1019 BLU+

Heure: 11:17 (10:17 UTC)

Prévision

Le bulletin a été fait il y a 2 heures et 17 minutes, à 08:00 UTC
Prévision valable du 24 à 09 UTC au 24 à 18 UTC
Vent 8 kt de est/nord-est
Visibilité 10 km ou plus
Quelques nuages à une hauteur de 3000 ft
Evoluant progressivement
du 24 à 11 UTC au 24 à 13 UTC
Vent 15 kt de est/nord-est avec des rafales jusqu'à 25 kt
Visibilité 10 km ou plus
Quelques nuages à une hauteur de 3000 ft

TAF: ETSN 240800Z 2409/2418 07008KT 9999 NSW FEW030 BECMG 2411/2413 07015G25KT 9999 NSW FEW030 BY ETGL

Observations et prévisions météorologiques de plus de 4000 aéroports (messages METAR et TAF).

Les stations disponibles sont représentées par des disques jaunes et rouges sur la carte.

Passer la souris dessus pour voir le nom de la station.

Cliquer dessus pour voir les observations et prévisions météorologiques.

Pour changer de carte: cliquez sur les boutons verts avec une croix noire pour zoomer, sur le bouton vert avec un tiret pour effectuer un zoom arrière, ou sur les flèches vertes pour les cartes adjacentes.


METAR-TAF: